sensor_id;sensor_type;location;lat;lon;timestamp;P1;durP1;ratioP1;P2;durP2;ratioP2
29538;SDS011;16482;51.046;4.498;2022-08-19T00:02:16;14.20;;;11.77;;
29538;SDS011;16482;51.046;4.498;2022-08-19T00:04:42;13.93;;;11.95;;
29538;SDS011;16482;51.046;4.498;2022-08-19T00:07:11;12.77;;;11.48;;
29538;SDS011;16482;51.046;4.498;2022-08-19T00:09:38;13.82;;;12.45;;
29538;SDS011;16482;51.046;4.498;2022-08-19T00:12:03;13.88;;;12.48;;
29538;SDS011;16482;51.046;4.498;2022-08-19T00:14:29;13.20;;;11.85;;
29538;SDS011;16482;51.046;4.498;2022-08-19T00:17:00;14.23;;;12.88;;
29538;SDS011;16482;51.046;4.498;2022-08-19T00:19:25;14.32;;;12.93;;
29538;SDS011;16482;51.046;4.498;2022-08-19T00:21:52;15.25;;;13.80;;
29538;SDS011;16482;51.046;4.498;2022-08-19T00:24:18;15.27;;;13.77;;
29538;SDS011;16482;51.046;4.498;2022-08-19T00:26:44;15.57;;;13.98;;
29538;SDS011;16482;51.046;4.498;2022-08-19T00:29:11;16.17;;;14.57;;
29538;SDS011;16482;51.046;4.498;2022-08-19T00:31:39;15.57;;;14.07;;
29538;SDS011;16482;51.046;4.498;2022-08-19T00:34:06;15.65;;;14.23;;
29538;SDS011;16482;51.046;4.498;2022-08-19T00:36:32;16.58;;;14.98;;
29538;SDS011;16482;51.046;4.498;2022-08-19T00:39:01;16.13;;;14.63;;
29538;SDS011;16482;51.046;4.498;2022-08-19T00:41:37;18.30;;;15.50;;
29538;SDS011;16482;51.046;4.498;2022-08-19T00:44:05;18.08;;;16.27;;
29538;SDS011;16482;51.046;4.498;2022-08-19T00:46:35;17.58;;;15.90;;
29538;SDS011;16482;51.046;4.498;2022-08-19T00:49:05;19.30;;;17.20;;
29538;SDS011;16482;51.046;4.498;2022-08-19T00:51:39;18.48;;;16.77;;
29538;SDS011;16482;51.046;4.498;2022-08-19T00:54:07;18.67;;;16.70;;
29538;SDS011;16482;51.046;4.498;2022-08-19T00:56:34;19.52;;;17.48;;
29538;SDS011;16482;51.046;4.498;2022-08-19T00:59:00;18.73;;;16.92;;
29538;SDS011;16482;51.046;4.498;2022-08-19T01:01:27;20.27;;;18.00;;
29538;SDS011;16482;51.046;4.498;2022-08-19T01:03:53;22.02;;;19.80;;
29538;SDS011;16482;51.046;4.498;2022-08-19T01:06:28;21.13;;;19.13;;
29538;SDS011;16482;51.046;4.498;2022-08-19T01:08:57;21.15;;;19.15;;
29538;SDS011;16482;51.046;4.498;2022-08-19T01:11:26;23.17;;;20.67;;
29538;SDS011;16482;51.046;4.498;2022-08-19T01:13:53;23.23;;;20.90;;
29538;SDS011;16482;51.046;4.498;2022-08-19T01:16:24;23.60;;;21.30;;
29538;SDS011;16482;51.046;4.498;2022-08-19T01:18:54;25.20;;;22.60;;
29538;SDS011;16482;51.046;4.498;2022-08-19T01:24:05;24.98;;;22.48;;
29538;SDS011;16482;51.046;4.498;2022-08-19T01:26:37;26.05;;;23.35;;
29538;SDS011;16482;51.046;4.498;2022-08-19T01:29:07;26.08;;;23.45;;
29538;SDS011;16482;51.046;4.498;2022-08-19T01:31:33;26.13;;;23.40;;
29538;SDS011;16482;51.046;4.498;2022-08-19T01:34:00;26.25;;;23.45;;
29538;SDS011;16482;51.046;4.498;2022-08-19T01:36:37;26.58;;;24.00;;
29538;SDS011;16482;51.046;4.498;2022-08-19T01:39:07;26.65;;;23.95;;
29538;SDS011;16482;51.046;4.498;2022-08-19T01:41:36;28.13;;;24.35;;
29538;SDS011;16482;51.046;4.498;2022-08-19T01:44:02;27.63;;;24.92;;
29538;SDS011;16482;51.046;4.498;2022-08-19T01:46:29;28.00;;;25.20;;
29538;SDS011;16482;51.046;4.498;2022-08-19T01:48:57;28.92;;;26.08;;
29538;SDS011;16482;51.046;4.498;2022-08-19T01:51:23;29.75;;;26.77;;
29538;SDS011;16482;51.046;4.498;2022-08-19T01:53:49;29.42;;;26.52;;
29538;SDS011;16482;51.046;4.498;2022-08-19T01:56:16;28.92;;;25.98;;
29538;SDS011;16482;51.046;4.498;2022-08-19T01:58:45;30.65;;;27.48;;
29538;SDS011;16482;51.046;4.498;2022-08-19T02:01:29;30.90;;;27.80;;
29538;SDS011;16482;51.046;4.498;2022-08-19T02:03:57;29.92;;;26.92;;
29538;SDS011;16482;51.046;4.498;2022-08-19T02:06:23;30.20;;;27.13;;
29538;SDS011;16482;51.046;4.498;2022-08-19T02:08:57;31.13;;;27.90;;
29538;SDS011;16482;51.046;4.498;2022-08-19T02:11:32;30.73;;;27.55;;
29538;SDS011;16482;51.046;4.498;2022-08-19T02:14:01;31.52;;;28.33;;
29538;SDS011;16482;51.046;4.498;2022-08-19T02:16:32;32.08;;;28.75;;
29538;SDS011;16482;51.046;4.498;2022-08-19T02:18:59;32.17;;;28.88;;
29538;SDS011;16482;51.046;4.498;2022-08-19T02:21:36;31.98;;;28.75;;
29538;SDS011;16482;51.046;4.498;2022-08-19T02:24:02;31.50;;;28.33;;
29538;SDS011;16482;51.046;4.498;2022-08-19T02:26:36;31.83;;;28.55;;
29538;SDS011;16482;51.046;4.498;2022-08-19T02:29:02;33.15;;;29.60;;
29538;SDS011;16482;51.046;4.498;2022-08-19T02:31:35;33.40;;;29.90;;
29538;SDS011;16482;51.046;4.498;2022-08-19T02:34:01;32.67;;;29.38;;
29538;SDS011;16482;51.046;4.498;2022-08-19T02:36:36;32.50;;;29.23;;
29538;SDS011;16482;51.046;4.498;2022-08-19T02:39:02;33.30;;;30.00;;
29538;SDS011;16482;51.046;4.498;2022-08-19T02:41:32;34.63;;;31.08;;
29538;SDS011;16482;51.046;4.498;2022-08-19T02:44:02;34.97;;;31.38;;
29538;SDS011;16482;51.046;4.498;2022-08-19T02:46:32;33.63;;;30.23;;
29538;SDS011;16482;51.046;4.498;2022-08-19T02:49:03;34.28;;;30.67;;
29538;SDS011;16482;51.046;4.498;2022-08-19T02:51:33;32.67;;;29.33;;
29538;SDS011;16482;51.046;4.498;2022-08-19T02:54:06;35.15;;;31.45;;
29538;SDS011;16482;51.046;4.498;2022-08-19T02:56:36;34.45;;;30.95;;
29538;SDS011;16482;51.046;4.498;2022-08-19T02:59:03;33.88;;;30.38;;
29538;SDS011;16482;51.046;4.498;2022-08-19T03:01:36;34.15;;;30.65;;
29538;SDS011;16482;51.046;4.498;2022-08-19T03:04:03;33.90;;;30.50;;
29538;SDS011;16482;51.046;4.498;2022-08-19T03:06:31;32.72;;;29.33;;
29538;SDS011;16482;51.046;4.498;2022-08-19T03:09:01;34.15;;;30.55;;
29538;SDS011;16482;51.046;4.498;2022-08-19T03:11:34;33.05;;;29.65;;
29538;SDS011;16482;51.046;4.498;2022-08-19T03:14:03;33.30;;;29.90;;
29538;SDS011;16482;51.046;4.498;2022-08-19T03:16:34;30.92;;;27.73;;
29538;SDS011;16482;51.046;4.498;2022-08-19T03:21:32;32.83;;;29.42;;
29538;SDS011;16482;51.046;4.498;2022-08-19T03:24:03;33.03;;;29.60;;
29538;SDS011;16482;51.046;4.498;2022-08-19T03:26:31;32.10;;;28.70;;
29538;SDS011;16482;51.046;4.498;2022-08-19T03:28:57;32.53;;;29.13;;
29538;SDS011;16482;51.046;4.498;2022-08-19T03:31:26;31.60;;;28.42;;
29538;SDS011;16482;51.046;4.498;2022-08-19T03:33:52;31.52;;;28.23;;
29538;SDS011;16482;51.046;4.498;2022-08-19T03:36:19;31.08;;;27.92;;
29538;SDS011;16482;51.046;4.498;2022-08-19T03:39:02;31.60;;;28.20;;
29538;SDS011;16482;51.046;4.498;2022-08-19T03:41:31;31.17;;;27.98;;
29538;SDS011;16482;51.046;4.498;2022-08-19T03:44:04;30.52;;;27.35;;
29538;SDS011;16482;51.046;4.498;2022-08-19T03:46:32;31.27;;;28.08;;
29538;SDS011;16482;51.046;4.498;2022-08-19T03:49:07;32.17;;;28.88;;
29538;SDS011;16482;51.046;4.498;2022-08-19T03:51:34;31.20;;;27.93;;
29538;SDS011;16482;51.046;4.498;2022-08-19T03:54:05;30.40;;;27.25;;
29538;SDS011;16482;51.046;4.498;2022-08-19T03:56:33;31.42;;;28.25;;
29538;SDS011;16482;51.046;4.498;2022-08-19T03:59:01;30.02;;;26.92;;
29538;SDS011;16482;51.046;4.498;2022-08-19T04:01:32;31.23;;;27.98;;
29538;SDS011;16482;51.046;4.498;2022-08-19T04:04:00;30.23;;;26.98;;
29538;SDS011;16482;51.046;4.498;2022-08-19T04:06:32;31.45;;;28.17;;
29538;SDS011;16482;51.046;4.498;2022-08-19T04:09:03;29.45;;;26.50;;
29538;SDS011;16482;51.046;4.498;2022-08-19T04:11:33;30.05;;;26.85;;
29538;SDS011;16482;51.046;4.498;2022-08-19T04:14:05;29.27;;;26.25;;
29538;SDS011;16482;51.046;4.498;2022-08-19T04:16:32;30.05;;;26.95;;
29538;SDS011;16482;51.046;4.498;2022-08-19T04:18:59;28.73;;;25.73;;
29538;SDS011;16482;51.046;4.498;2022-08-19T04:21:30;27.02;;;24.30;;
29538;SDS011;16482;51.046;4.498;2022-08-19T04:23:56;28.55;;;25.45;;
29538;SDS011;16482;51.046;4.498;2022-08-19T04:26:32;29.38;;;26.27;;
29538;SDS011;16482;51.046;4.498;2022-08-19T04:29:03;28.45;;;25.48;;
29538;SDS011;16482;51.046;4.498;2022-08-19T04:31:31;27.85;;;24.83;;
29538;SDS011;16482;51.046;4.498;2022-08-19T04:34:01;26.20;;;23.60;;
29538;SDS011;16482;51.046;4.498;2022-08-19T04:36:32;28.55;;;25.45;;
29538;SDS011;16482;51.046;4.498;2022-08-19T04:39:04;27.20;;;24.35;;
29538;SDS011;16482;51.046;4.498;2022-08-19T04:41:34;27.33;;;24.53;;
29538;SDS011;16482;51.046;4.498;2022-08-19T04:44:18;28.40;;;25.33;;
29538;SDS011;16482;51.046;4.498;2022-08-19T04:46:45;26.58;;;23.77;;
29538;SDS011;16482;51.046;4.498;2022-08-19T04:49:12;26.60;;;23.73;;
29538;SDS011;16482;51.046;4.498;2022-08-19T04:51:40;25.38;;;22.67;;
29538;SDS011;16482;51.046;4.498;2022-08-19T04:54:07;24.20;;;21.70;;
29538;SDS011;16482;51.046;4.498;2022-08-19T04:56:34;25.52;;;22.83;;
29538;SDS011;16482;51.046;4.498;2022-08-19T04:58:59;25.73;;;22.05;;
29538;SDS011;16482;51.046;4.498;2022-08-19T05:01:32;25.98;;;23.27;;
29538;SDS011;16482;51.046;4.498;2022-08-19T05:04:04;25.10;;;22.52;;
29538;SDS011;16482;51.046;4.498;2022-08-19T05:06:33;25.20;;;22.58;;
29538;SDS011;16482;51.046;4.498;2022-08-19T05:09:02;23.60;;;21.05;;
29538;SDS011;16482;51.046;4.498;2022-08-19T05:11:33;24.33;;;21.73;;
29538;SDS011;16482;51.046;4.498;2022-08-19T05:14:07;22.88;;;20.35;;
29538;SDS011;16482;51.046;4.498;2022-08-19T05:16:34;23.80;;;21.40;;
29538;SDS011;16482;51.046;4.498;2022-08-19T05:19:00;23.95;;;21.38;;
29538;SDS011;16482;51.046;4.498;2022-08-19T05:21:44;23.70;;;20.95;;
29538;SDS011;16482;51.046;4.498;2022-08-19T05:24:29;23.77;;;21.17;;
29538;SDS011;16482;51.046;4.498;2022-08-19T05:26:55;23.20;;;20.75;;
29538;SDS011;16482;51.046;4.498;2022-08-19T05:29:22;22.88;;;20.48;;
29538;SDS011;16482;51.046;4.498;2022-08-19T05:31:54;23.15;;;20.75;;
29538;SDS011;16482;51.046;4.498;2022-08-19T05:34:21;22.90;;;20.50;;
29538;SDS011;16482;51.046;4.498;2022-08-19T05:36:50;20.70;;;18.50;;
29538;SDS011;16482;51.046;4.498;2022-08-19T05:39:22;21.00;;;18.80;;
29538;SDS011;16482;51.046;4.498;2022-08-19T05:41:51;22.30;;;19.63;;
29538;SDS011;16482;51.046;4.498;2022-08-19T05:44:19;21.90;;;18.73;;
29538;SDS011;16482;51.046;4.498;2022-08-19T05:46:46;21.48;;;19.27;;
29538;SDS011;16482;51.046;4.498;2022-08-19T05:49:13;24.88;;;19.35;;
29538;SDS011;16482;51.046;4.498;2022-08-19T05:51:40;22.73;;;19.38;;
29538;SDS011;16482;51.046;4.498;2022-08-19T05:54:07;20.45;;;18.38;;
29538;SDS011;16482;51.046;4.498;2022-08-19T05:56:33;20.60;;;18.50;;
29538;SDS011;16482;51.046;4.498;2022-08-19T05:59:03;19.58;;;17.52;;
29538;SDS011;16482;51.046;4.498;2022-08-19T06:01:33;21.90;;;18.13;;
29538;SDS011;16482;51.046;4.498;2022-08-19T06:04:02;19.48;;;17.48;;
29538;SDS011;16482;51.046;4.498;2022-08-19T06:06:37;20.70;;;17.80;;
29538;SDS011;16482;51.046;4.498;2022-08-19T06:09:04;21.05;;;16.95;;
29538;SDS011;16482;51.046;4.498;2022-08-19T06:14:21;18.70;;;16.80;;
29538;SDS011;16482;51.046;4.498;2022-08-19T06:16:49;19.88;;;17.77;;
29538;SDS011;16482;51.046;4.498;2022-08-19T06:19:17;19.10;;;17.08;;
29538;SDS011;16482;51.046;4.498;2022-08-19T06:21:45;19.75;;;16.75;;
29538;SDS011;16482;51.046;4.498;2022-08-19T06:24:14;18.52;;;15.55;;
29538;SDS011;16482;51.046;4.498;2022-08-19T06:26:43;18.98;;;16.00;;
29538;SDS011;16482;51.046;4.498;2022-08-19T06:29:11;17.92;;;15.25;;
29538;SDS011;16482;51.046;4.498;2022-08-19T06:31:43;17.60;;;15.27;;
29538;SDS011;16482;51.046;4.498;2022-08-19T06:34:10;17.73;;;15.23;;
29538;SDS011;16482;51.046;4.498;2022-08-19T06:36:37;20.63;;;15.52;;
29538;SDS011;16482;51.046;4.498;2022-08-19T06:39:11;18.92;;;15.30;;
29538;SDS011;16482;51.046;4.498;2022-08-19T06:41:43;19.13;;;14.45;;
29538;SDS011;16482;51.046;4.498;2022-08-19T06:44:12;15.60;;;13.52;;
29538;SDS011;16482;51.046;4.498;2022-08-19T06:46:39;16.98;;;13.98;;
29538;SDS011;16482;51.046;4.498;2022-08-19T06:49:09;14.48;;;12.10;;
29538;SDS011;16482;51.046;4.498;2022-08-19T06:51:38;16.85;;;12.77;;
29538;SDS011;16482;51.046;4.498;2022-08-19T06:54:05;17.73;;;12.55;;
29538;SDS011;16482;51.046;4.498;2022-08-19T06:56:31;15.20;;;11.95;;
29538;SDS011;16482;51.046;4.498;2022-08-19T06:59:03;15.60;;;10.80;;
29538;SDS011;16482;51.046;4.498;2022-08-19T07:01:33;14.43;;;10.77;;
29538;SDS011;16482;51.046;4.498;2022-08-19T07:04:02;15.15;;;10.50;;
29538;SDS011;16482;51.046;4.498;2022-08-19T07:06:32;11.82;;;9.63;;
29538;SDS011;16482;51.046;4.498;2022-08-19T07:09:01;14.10;;;9.75;;
29538;SDS011;16482;51.046;4.498;2022-08-19T07:11:31;13.10;;;9.38;;
29538;SDS011;16482;51.046;4.498;2022-08-19T07:14:00;15.10;;;9.98;;
29538;SDS011;16482;51.046;4.498;2022-08-19T07:16:34;14.68;;;9.75;;
29538;SDS011;16482;51.046;4.498;2022-08-19T07:18:59;10.82;;;8.98;;
29538;SDS011;16482;51.046;4.498;2022-08-19T07:21:27;13.27;;;8.90;;
29538;SDS011;16482;51.046;4.498;2022-08-19T07:23:53;12.93;;;9.00;;
29538;SDS011;16482;51.046;4.498;2022-08-19T07:26:27;11.35;;;8.32;;
29538;SDS011;16482;51.046;4.498;2022-08-19T07:28:58;12.18;;;8.77;;
29538;SDS011;16482;51.046;4.498;2022-08-19T07:31:33;10.60;;;8.73;;
29538;SDS011;16482;51.046;4.498;2022-08-19T07:34:04;13.20;;;8.85;;
29538;SDS011;16482;51.046;4.498;2022-08-19T07:36:33;13.18;;;9.27;;
29538;SDS011;16482;51.046;4.498;2022-08-19T07:39:04;11.95;;;8.40;;
29538;SDS011;16482;51.046;4.498;2022-08-19T07:41:32;12.65;;;8.10;;
29538;SDS011;16482;51.046;4.498;2022-08-19T07:44:02;10.48;;;7.65;;
29538;SDS011;16482;51.046;4.498;2022-08-19T07:46:31;13.90;;;9.30;;
29538;SDS011;16482;51.046;4.498;2022-08-19T07:49:04;10.73;;;8.82;;
29538;SDS011;16482;51.046;4.498;2022-08-19T07:51:31;11.10;;;9.02;;
29538;SDS011;16482;51.046;4.498;2022-08-19T07:53:58;11.73;;;9.13;;
29538;SDS011;16482;51.046;4.498;2022-08-19T07:56:34;12.60;;;9.35;;
29538;SDS011;16482;51.046;4.498;2022-08-19T07:59:02;10.18;;;8.27;;
29538;SDS011;16482;51.046;4.498;2022-08-19T08:01:37;9.88;;;8.35;;
29538;SDS011;16482;51.046;4.498;2022-08-19T08:04:05;10.50;;;8.07;;
29538;SDS011;16482;51.046;4.498;2022-08-19T08:06:51;14.35;;;8.80;;
29538;SDS011;16482;51.046;4.498;2022-08-19T08:09:38;11.82;;;8.55;;
29538;SDS011;16482;51.046;4.498;2022-08-19T08:14:37;9.95;;;8.50;;
29538;SDS011;16482;51.046;4.498;2022-08-19T08:17:09;10.57;;;8.32;;
29538;SDS011;16482;51.046;4.498;2022-08-19T08:19:35;10.48;;;8.50;;
29538;SDS011;16482;51.046;4.498;2022-08-19T08:22:05;12.50;;;8.73;;
29538;SDS011;16482;51.046;4.498;2022-08-19T08:24:34;11.05;;;8.55;;
29538;SDS011;16482;51.046;4.498;2022-08-19T08:27:01;10.68;;;8.45;;
29538;SDS011;16482;51.046;4.498;2022-08-19T08:29:31;8.68;;;7.78;;
29538;SDS011;16482;51.046;4.498;2022-08-19T08:31:56;9.27;;;7.63;;
29538;SDS011;16482;51.046;4.498;2022-08-19T08:34:22;11.98;;;8.30;;
29538;SDS011;16482;51.046;4.498;2022-08-19T08:36:48;10.05;;;8.13;;
29538;SDS011;16482;51.046;4.498;2022-08-19T08:39:16;9.15;;;7.55;;
29538;SDS011;16482;51.046;4.498;2022-08-19T08:44:40;9.63;;;7.93;;
29538;SDS011;16482;51.046;4.498;2022-08-19T08:47:26;13.80;;;9.07;;
29538;SDS011;16482;51.046;4.498;2022-08-19T08:50:02;10.73;;;8.20;;
29538;SDS011;16482;51.046;4.498;2022-08-19T08:52:33;10.48;;;8.48;;
29538;SDS011;16482;51.046;4.498;2022-08-19T08:55:07;14.77;;;9.55;;
29538;SDS011;16482;51.046;4.498;2022-08-19T09:02:48;10.27;;;8.02;;
29538;SDS011;16482;51.046;4.498;2022-08-19T09:05:14;13.13;;;8.52;;
29538;SDS011;16482;51.046;4.498;2022-08-19T09:10:29;11.75;;;7.85;;
29538;SDS011;16482;51.046;4.498;2022-08-19T09:15:32;13.68;;;8.77;;
29538;SDS011;16482;51.046;4.498;2022-08-19T09:18:08;15.40;;;8.13;;
29538;SDS011;16482;51.046;4.498;2022-08-19T09:20:34;12.32;;;8.40;;
29538;SDS011;16482;51.046;4.498;2022-08-19T09:23:02;13.68;;;7.90;;
29538;SDS011;16482;51.046;4.498;2022-08-19T09:25:37;15.73;;;8.75;;
29538;SDS011;16482;51.046;4.498;2022-08-19T09:28:14;11.65;;;8.10;;
29538;SDS011;16482;51.046;4.498;2022-08-19T09:30:43;12.55;;;8.68;;
29538;SDS011;16482;51.046;4.498;2022-08-19T09:33:12;11.18;;;8.70;;
29538;SDS011;16482;51.046;4.498;2022-08-19T09:35:41;13.43;;;8.43;;
29538;SDS011;16482;51.046;4.498;2022-08-19T09:38:12;12.38;;;8.85;;
29538;SDS011;16482;51.046;4.498;2022-08-19T09:40:38;10.52;;;8.82;;
29538;SDS011;16482;51.046;4.498;2022-08-19T09:43:07;16.17;;;9.18;;
29538;SDS011;16482;51.046;4.498;2022-08-19T09:45:33;13.20;;;8.95;;
29538;SDS011;16482;51.046;4.498;2022-08-19T09:48:13;13.52;;;8.68;;
29538;SDS011;16482;51.046;4.498;2022-08-19T09:50:48;12.20;;;8.20;;
29538;SDS011;16482;51.046;4.498;2022-08-19T09:53:15;12.18;;;9.65;;
29538;SDS011;16482;51.046;4.498;2022-08-19T09:55:43;12.68;;;8.35;;
29538;SDS011;16482;51.046;4.498;2022-08-19T09:58:12;11.35;;;8.93;;
29538;SDS011;16482;51.046;4.498;2022-08-19T10:00:41;12.10;;;9.43;;
29538;SDS011;16482;51.046;4.498;2022-08-19T10:03:11;13.30;;;8.95;;
29538;SDS011;16482;51.046;4.498;2022-08-19T10:05:44;11.65;;;9.15;;
29538;SDS011;16482;51.046;4.498;2022-08-19T10:08:14;12.63;;;8.52;;
29538;SDS011;16482;51.046;4.498;2022-08-19T10:10:44;13.80;;;9.30;;
29538;SDS011;16482;51.046;4.498;2022-08-19T10:13:11;10.20;;;8.95;;
29538;SDS011;16482;51.046;4.498;2022-08-19T10:15:45;15.25;;;9.63;;
29538;SDS011;16482;51.046;4.498;2022-08-19T10:18:13;10.95;;;9.02;;
29538;SDS011;16482;51.046;4.498;2022-08-19T10:20:42;14.45;;;9.40;;
29538;SDS011;16482;51.046;4.498;2022-08-19T10:23:12;15.35;;;9.68;;
29538;SDS011;16482;51.046;4.498;2022-08-19T10:25:40;11.95;;;9.65;;
29538;SDS011;16482;51.046;4.498;2022-08-19T10:28:08;13.70;;;10.00;;
29538;SDS011;16482;51.046;4.498;2022-08-19T10:30:45;13.88;;;9.90;;
29538;SDS011;16482;51.046;4.498;2022-08-19T10:33:11;15.13;;;10.88;;
29538;SDS011;16482;51.046;4.498;2022-08-19T10:35:38;13.55;;;10.57;;
29538;SDS011;16482;51.046;4.498;2022-08-19T10:38:04;12.68;;;10.50;;
29538;SDS011;16482;51.046;4.498;2022-08-19T10:40:42;13.57;;;11.30;;
29538;SDS011;16482;51.046;4.498;2022-08-19T10:43:11;11.57;;;9.85;;
29538;SDS011;16482;51.046;4.498;2022-08-19T10:45:48;11.90;;;10.48;;
29538;SDS011;16482;51.046;4.498;2022-08-19T10:48:19;15.98;;;11.98;;
29538;SDS011;16482;51.046;4.498;2022-08-19T10:50:47;13.98;;;11.23;;
29538;SDS011;16482;51.046;4.498;2022-08-19T10:53:32;13.85;;;11.20;;
29538;SDS011;16482;51.046;4.498;2022-08-19T10:55:57;16.88;;;12.07;;
29538;SDS011;16482;51.046;4.498;2022-08-19T10:58:42;13.68;;;11.27;;
29538;SDS011;16482;51.046;4.498;2022-08-19T11:01:10;15.77;;;11.48;;
29538;SDS011;16482;51.046;4.498;2022-08-19T11:03:35;17.20;;;11.98;;
29538;SDS011;16482;51.046;4.498;2022-08-19T11:06:11;14.57;;;11.88;;
29538;SDS011;16482;51.046;4.498;2022-08-19T11:08:37;14.15;;;11.18;;
29538;SDS011;16482;51.046;4.498;2022-08-19T11:11:03;14.60;;;11.38;;
29538;SDS011;16482;51.046;4.498;2022-08-19T11:13:31;15.95;;;11.52;;
29538;SDS011;16482;51.046;4.498;2022-08-19T11:16:02;17.25;;;12.10;;
29538;SDS011;16482;51.046;4.498;2022-08-19T11:18:36;15.85;;;11.48;;
29538;SDS011;16482;51.046;4.498;2022-08-19T11:21:11;14.57;;;11.50;;
29538;SDS011;16482;51.046;4.498;2022-08-19T11:23:42;15.60;;;10.82;;
29538;SDS011;16482;51.046;4.498;2022-08-19T11:26:08;13.85;;;10.90;;
29538;SDS011;16482;51.046;4.498;2022-08-19T11:28:37;13.82;;;10.70;;
29538;SDS011;16482;51.046;4.498;2022-08-19T11:31:03;14.50;;;11.48;;
29538;SDS011;16482;51.046;4.498;2022-08-19T11:33:34;15.73;;;11.48;;
29538;SDS011;16482;51.046;4.498;2022-08-19T11:36:02;12.35;;;9.80;;
29538;SDS011;16482;51.046;4.498;2022-08-19T11:38:28;12.55;;;10.38;;
29538;SDS011;16482;51.046;4.498;2022-08-19T11:41:05;14.23;;;10.38;;
29538;SDS011;16482;51.046;4.498;2022-08-19T11:43:35;13.07;;;9.73;;
29538;SDS011;16482;51.046;4.498;2022-08-19T11:46:07;14.95;;;9.15;;
29538;SDS011;16482;51.046;4.498;2022-08-19T11:48:35;15.52;;;8.73;;
29538;SDS011;16482;51.046;4.498;2022-08-19T11:51:03;12.43;;;8.43;;
29538;SDS011;16482;51.046;4.498;2022-08-19T11:53:34;11.27;;;8.23;;
29538;SDS011;16482;51.046;4.498;2022-08-19T11:56:02;11.05;;;7.30;;
29538;SDS011;16482;51.046;4.498;2022-08-19T11:58:29;8.02;;;7.13;;
29538;SDS011;16482;51.046;4.498;2022-08-19T12:01:08;9.32;;;7.07;;
29538;SDS011;16482;51.046;4.498;2022-08-19T12:03:46;11.32;;;7.55;;
29538;SDS011;16482;51.046;4.498;2022-08-19T12:06:15;8.55;;;7.30;;
29538;SDS011;16482;51.046;4.498;2022-08-19T12:08:44;11.93;;;7.25;;
29538;SDS011;16482;51.046;4.498;2022-08-19T12:11:15;10.93;;;7.32;;
29538;SDS011;16482;51.046;4.498;2022-08-19T12:13:41;8.80;;;6.90;;
29538;SDS011;16482;51.046;4.498;2022-08-19T12:16:18;8.63;;;6.80;;
29538;SDS011;16482;51.046;4.498;2022-08-19T12:18:46;7.82;;;6.95;;
29538;SDS011;16482;51.046;4.498;2022-08-19T12:21:13;8.63;;;7.30;;
29538;SDS011;16482;51.046;4.498;2022-08-19T12:23:49;7.97;;;6.88;;
29538;SDS011;16482;51.046;4.498;2022-08-19T12:26:16;9.82;;;6.53;;
29538;SDS011;16482;51.046;4.498;2022-08-19T12:28:42;9.80;;;6.53;;
29538;SDS011;16482;51.046;4.498;2022-08-19T12:31:09;7.38;;;6.38;;
29538;SDS011;16482;51.046;4.498;2022-08-19T12:33:37;6.18;;;5.57;;
29538;SDS011;16482;51.046;4.498;2022-08-19T12:36:07;7.85;;;5.47;;
29538;SDS011;16482;51.046;4.498;2022-08-19T12:38:36;7.18;;;5.75;;
29538;SDS011;16482;51.046;4.498;2022-08-19T12:41:02;7.28;;;6.28;;
29538;SDS011;16482;51.046;4.498;2022-08-19T12:43:33;7.10;;;5.85;;
29538;SDS011;16482;51.046;4.498;2022-08-19T12:46:00;8.48;;;5.45;;
29538;SDS011;16482;51.046;4.498;2022-08-19T12:48:26;7.25;;;6.22;;
29538;SDS011;16482;51.046;4.498;2022-08-19T12:50:57;7.18;;;5.55;;
29538;SDS011;16482;51.046;4.498;2022-08-19T12:53:22;10.05;;;5.63;;
29538;SDS011;16482;51.046;4.498;2022-08-19T12:55:55;6.07;;;5.43;;
29538;SDS011;16482;51.046;4.498;2022-08-19T12:58:23;8.68;;;5.72;;
29538;SDS011;16482;51.046;4.498;2022-08-19T13:00:49;7.15;;;5.78;;
29538;SDS011;16482;51.046;4.498;2022-08-19T13:03:14;8.55;;;6.03;;
29538;SDS011;16482;51.046;4.498;2022-08-19T13:05:43;7.95;;;6.57;;
29538;SDS011;16482;51.046;4.498;2022-08-19T13:08:11;8.48;;;6.43;;
29538;SDS011;16482;51.046;4.498;2022-08-19T13:10:45;6.53;;;5.90;;
29538;SDS011;16482;51.046;4.498;2022-08-19T13:13:14;10.20;;;6.43;;
29538;SDS011;16482;51.046;4.498;2022-08-19T13:15:40;9.32;;;7.25;;
29538;SDS011;16482;51.046;4.498;2022-08-19T13:18:08;8.27;;;6.25;;
29538;SDS011;16482;51.046;4.498;2022-08-19T13:20:35;9.57;;;6.55;;
29538;SDS011;16482;51.046;4.498;2022-08-19T13:23:11;11.00;;;7.47;;
29538;SDS011;16482;51.046;4.498;2022-08-19T13:25:36;9.27;;;7.88;;
29538;SDS011;16482;51.046;4.498;2022-08-19T13:28:17;9.90;;;7.95;;
29538;SDS011;16482;51.046;4.498;2022-08-19T13:30:46;9.52;;;8.02;;
29538;SDS011;16482;51.046;4.498;2022-08-19T13:33:31;9.07;;;8.18;;
29538;SDS011;16482;51.046;4.498;2022-08-19T13:35:59;9.93;;;8.93;;
29538;SDS011;16482;51.046;4.498;2022-08-19T13:38:26;11.13;;;10.02;;
29538;SDS011;16482;51.046;4.498;2022-08-19T13:40:53;10.10;;;9.10;;
29538;SDS011;16482;51.046;4.498;2022-08-19T13:43:21;11.05;;;9.95;;
29538;SDS011;16482;51.046;4.498;2022-08-19T13:45:49;12.00;;;9.55;;
29538;SDS011;16482;51.046;4.498;2022-08-19T13:48:20;11.23;;;10.02;;
29538;SDS011;16482;51.046;4.498;2022-08-19T13:50:46;10.98;;;9.88;;
29538;SDS011;16482;51.046;4.498;2022-08-19T13:53:15;15.57;;;9.52;;
29538;SDS011;16482;51.046;4.498;2022-08-19T13:55:45;9.95;;;8.95;;
29538;SDS011;16482;51.046;4.498;2022-08-19T13:58:14;9.95;;;8.95;;
29538;SDS011;16482;51.046;4.498;2022-08-19T14:00:44;10.35;;;9.35;;
29538;SDS011;16482;51.046;4.498;2022-08-19T14:03:11;10.65;;;9.35;;
29538;SDS011;16482;51.046;4.498;2022-08-19T14:05:48;10.45;;;9.38;;
29538;SDS011;16482;51.046;4.498;2022-08-19T14:08:13;10.20;;;9.10;;
29538;SDS011;16482;51.046;4.498;2022-08-19T14:10:47;11.93;;;9.32;;
29538;SDS011;16482;51.046;4.498;2022-08-19T14:13:18;9.80;;;8.80;;
29538;SDS011;16482;51.046;4.498;2022-08-19T14:15:45;13.00;;;9.20;;
29538;SDS011;16482;51.046;4.498;2022-08-19T14:18:12;10.13;;;9.13;;
29538;SDS011;16482;51.046;4.498;2022-08-19T14:20:40;8.93;;;8.10;;
29538;SDS011;16482;51.046;4.498;2022-08-19T14:23:07;8.57;;;7.65;;
29538;SDS011;16482;51.046;4.498;2022-08-19T14:25:44;9.50;;;8.10;;
29538;SDS011;16482;51.046;4.498;2022-08-19T14:28:21;10.10;;;8.50;;
29538;SDS011;16482;51.046;4.498;2022-08-19T14:30:47;10.10;;;8.20;;
29538;SDS011;16482;51.046;4.498;2022-08-19T14:33:15;8.48;;;7.47;;
29538;SDS011;16482;51.046;4.498;2022-08-19T14:35:44;7.93;;;7.07;;
29538;SDS011;16482;51.046;4.498;2022-08-19T14:38:17;9.45;;;6.93;;
29538;SDS011;16482;51.046;4.498;2022-08-19T14:40:44;8.75;;;6.63;;
29538;SDS011;16482;51.046;4.498;2022-08-19T14:43:19;7.93;;;6.68;;
29538;SDS011;16482;51.046;4.498;2022-08-19T14:45:46;7.18;;;6.53;;
29538;SDS011;16482;51.046;4.498;2022-08-19T14:48:12;8.27;;;6.63;;
29538;SDS011;16482;51.046;4.498;2022-08-19T14:50:43;7.35;;;5.20;;
29538;SDS011;16482;51.046;4.498;2022-08-19T14:53:15;18.50;;;4.32;;
29538;SDS011;16482;51.046;4.498;2022-08-19T14:55:45;5.63;;;3.83;;
29538;SDS011;16482;51.046;4.498;2022-08-19T14:58:19;4.43;;;3.40;;
29538;SDS011;16482;51.046;4.498;2022-08-19T15:00:48;7.97;;;3.22;;
29538;SDS011;16482;51.046;4.498;2022-08-19T15:03:13;6.53;;;3.30;;
29538;SDS011;16482;51.046;4.498;2022-08-19T15:05:47;3.97;;;2.60;;
29538;SDS011;16482;51.046;4.498;2022-08-19T15:08:15;5.63;;;2.65;;